createdAt,value
2022-11-28T00:01:19.821Z,1.50
2022-11-28T00:03:46.398Z,2.90
2022-11-28T00:06:13.055Z,2.20
2022-11-28T00:08:40.405Z,2.67
2022-11-28T00:11:09.264Z,2.30
2022-11-28T00:13:36.716Z,1.77
2022-11-28T00:16:06.793Z,1.50
2022-11-28T00:18:33.584Z,1.80
2022-11-28T00:21:08.845Z,1.95
2022-11-28T00:23:35.827Z,4.03
2022-11-28T00:26:11.677Z,2.00
2022-11-28T00:31:07.107Z,2.70
2022-11-28T00:33:33.934Z,1.70
2022-11-28T00:36:04.995Z,1.50
2022-11-28T00:38:31.765Z,2.97
2022-11-28T00:41:06.621Z,1.90
2022-11-28T00:43:33.660Z,2.97
2022-11-28T00:46:00.350Z,2.97
2022-11-28T00:48:27.237Z,2.35
2022-11-28T00:50:55.083Z,2.22
2022-11-28T00:53:21.957Z,1.63
2022-11-28T00:55:48.524Z,3.47
2022-11-28T00:58:15.064Z,2.22
2022-11-28T01:00:41.788Z,1.98
2022-11-28T01:03:08.402Z,1.77
2022-11-28T01:05:40.616Z,1.65
2022-11-28T01:08:08.037Z,2.58
2022-11-28T01:10:34.587Z,2.08
2022-11-28T01:13:01.160Z,3.00
2022-11-28T01:15:28.365Z,2.10
2022-11-28T01:17:55.368Z,2.90
2022-11-28T01:20:22.357Z,3.10
2022-11-28T01:22:48.951Z,2.15
2022-11-28T01:25:16.478Z,3.30
2022-11-28T01:27:43.026Z,1.42
2022-11-28T01:30:10.199Z,2.58
2022-11-28T01:32:36.733Z,2.03
2022-11-28T01:35:03.758Z,2.60
2022-11-28T01:37:30.904Z,1.90
2022-11-28T01:39:57.974Z,2.22
2022-11-28T01:42:25.050Z,5.57
2022-11-28T01:44:54.220Z,3.03
2022-11-28T01:47:29.823Z,4.63
2022-11-28T01:49:56.937Z,3.33
2022-11-28T01:52:24.397Z,2.55
2022-11-28T01:54:56.042Z,2.30
2022-11-28T01:57:25.502Z,2.35
2022-11-28T02:00:11.718Z,2.17
2022-11-28T02:02:55.081Z,1.77
2022-11-28T02:05:22.800Z,1.38
2022-11-28T02:07:51.418Z,1.50
2022-11-28T02:10:28.723Z,2.50
2022-11-28T02:13:21.287Z,1.65
2022-11-28T02:16:03.596Z,1.50
2022-11-28T02:18:50.541Z,3.72
2022-11-28T02:21:29.441Z,3.70
2022-11-28T02:23:59.033Z,1.40
2022-11-28T02:26:31.299Z,1.58
2022-11-28T02:29:23.515Z,1.33
2022-11-28T02:32:14.449Z,1.40
2022-11-28T02:35:03.446Z,3.63
2022-11-28T02:38:02.234Z,1.98
2022-11-28T02:40:41.022Z,1.70
2022-11-28T02:43:20.600Z,1.65
2022-11-28T02:46:02.777Z,1.35
2022-11-28T02:48:42.058Z,1.42
2022-11-28T02:51:21.146Z,2.28
2022-11-28T02:53:49.669Z,2.33
2022-11-28T02:56:16.442Z,1.48
2022-11-28T02:58:42.985Z,1.67
2022-11-28T03:01:19.715Z,2.85
2022-11-28T03:04:05.123Z,1.20
2022-11-28T03:06:41.796Z,2.20
2022-11-28T03:09:33.275Z,1.27
2022-11-28T03:12:08.605Z,1.20
2022-11-28T03:14:47.603Z,1.13
2022-11-28T03:17:25.873Z,1.40
2022-11-28T03:20:14.080Z,1.70
2022-11-28T03:23:08.512Z,1.55
2022-11-28T03:26:19.103Z,1.52
2022-11-28T03:29:11.933Z,2.00
2022-11-28T03:31:48.347Z,1.70
2022-11-28T03:34:19.841Z,2.03
2022-11-28T03:37:00.152Z,1.40
2022-11-28T03:39:31.979Z,0.90
2022-11-28T03:42:07.839Z,1.42
2022-11-28T03:47:12.281Z,1.42
2022-11-28T03:49:42.844Z,1.10
2022-11-28T03:52:16.901Z,1.00
2022-11-28T03:54:52.711Z,1.00
2022-11-28T04:00:00.349Z,1.10
2022-11-28T04:02:34.238Z,0.75
2022-11-28T04:05:18.137Z,0.90
2022-11-28T04:07:51.964Z,0.80
2022-11-28T04:10:30.066Z,1.20
2022-11-28T04:13:07.112Z,1.17
2022-11-28T04:15:38.749Z,1.00
2022-11-28T04:18:30.098Z,1.30
2022-11-28T04:21:44.470Z,2.05
2022-11-28T04:24:18.253Z,0.80
2022-11-28T04:27:17.414Z,1.08
2022-11-28T04:29:54.055Z,1.05
2022-11-28T04:32:22.504Z,1.58
2022-11-28T04:34:54.890Z,0.65
2022-11-28T04:37:23.166Z,0.80
2022-11-28T04:39:50.734Z,1.67
2022-11-28T04:42:31.028Z,0.80
2022-11-28T04:45:03.623Z,1.10
2022-11-28T04:47:30.408Z,1.23
2022-11-28T04:49:57.056Z,0.90
2022-11-28T04:52:35.412Z,1.15
2022-11-28T04:55:10.825Z,1.05
2022-11-28T04:57:44.922Z,1.20
2022-11-28T05:00:15.545Z,1.42
2022-11-28T05:02:44.077Z,2.10
2022-11-28T05:05:15.479Z,1.15
2022-11-28T05:07:42.664Z,1.15
2022-11-28T05:10:12.048Z,1.58
2022-11-28T05:12:38.617Z,1.80
2022-11-28T05:15:06.243Z,0.95
2022-11-28T05:17:33.622Z,0.90
2022-11-28T05:20:02.554Z,1.05
2022-11-28T05:22:29.193Z,1.00
2022-11-28T05:24:55.769Z,1.00
2022-11-28T05:27:22.241Z,1.33
2022-11-28T05:29:52.211Z,1.48
2022-11-28T05:32:19.045Z,1.27
2022-11-28T05:34:45.605Z,2.03
2022-11-28T05:37:12.686Z,1.30
2022-11-28T05:39:39.514Z,1.55
2022-11-28T05:42:06.327Z,1.52
2022-11-28T05:44:32.848Z,3.90
2022-11-28T05:46:59.861Z,1.33
2022-11-28T05:49:27.169Z,2.45
2022-11-28T05:51:53.750Z,2.22
2022-11-28T05:54:20.267Z,1.30
2022-11-28T05:56:46.850Z,3.20
2022-11-28T05:59:13.980Z,2.90
2022-11-28T06:01:40.566Z,2.50
2022-11-28T06:04:07.226Z,2.63
2022-11-28T06:06:37.736Z,2.38
2022-11-28T06:09:06.183Z,3.42
2022-11-28T06:11:34.055Z,2.42
2022-11-28T06:14:01.121Z,2.92
2022-11-28T06:16:29.746Z,2.47
2022-11-28T06:18:59.070Z,1.90
2022-11-28T06:21:26.737Z,1.73
2022-11-28T06:23:54.430Z,2.28
2022-11-28T06:26:22.867Z,1.75
2022-11-28T06:28:50.133Z,2.05
2022-11-28T06:31:23.554Z,3.28
2022-11-28T06:33:50.763Z,2.30
2022-11-28T06:36:18.797Z,2.13
2022-11-28T06:38:46.224Z,2.47
2022-11-28T06:41:16.256Z,2.38
2022-11-28T06:43:43.054Z,2.10
2022-11-28T06:46:17.998Z,2.80
2022-11-28T06:48:46.206Z,2.93
2022-11-28T06:51:13.446Z,4.18
2022-11-28T06:53:40.766Z,9.73
2022-11-28T06:56:09.602Z,7.25
2022-11-28T06:58:36.683Z,3.72
2022-11-28T07:01:15.855Z,7.60
2022-11-28T07:03:43.812Z,5.20
2022-11-28T07:06:11.922Z,7.95
2022-11-28T07:08:38.611Z,7.07
2022-11-28T07:11:12.718Z,9.13
2022-11-28T07:13:40.478Z,8.23
2022-11-28T07:16:13.557Z,7.90
2022-11-28T07:18:40.151Z,5.95
2022-11-28T07:21:06.636Z,7.10
2022-11-28T07:23:33.228Z,6.22
2022-11-28T07:26:01.313Z,5.22
2022-11-28T07:28:29.625Z,5.18
2022-11-28T07:31:05.801Z,5.30
2022-11-28T07:33:33.856Z,5.28
2022-11-28T07:36:11.387Z,5.88
2022-11-28T07:38:38.106Z,2.95
2022-11-28T07:41:13.005Z,7.15
2022-11-28T07:43:44.507Z,6.40
2022-11-28T07:46:16.393Z,5.85
2022-11-28T07:48:43.784Z,3.58
2022-11-28T07:51:19.186Z,4.50
2022-11-28T07:53:46.582Z,3.28
2022-11-28T07:56:19.197Z,3.97
2022-11-28T07:58:47.682Z,3.88
2022-11-28T08:01:21.059Z,3.30
2022-11-28T08:03:49.176Z,4.97
2022-11-28T08:06:16.982Z,6.95
2022-11-28T08:08:45.505Z,3.75
2022-11-28T08:11:12.620Z,3.85
2022-11-28T08:13:40.441Z,3.55
2022-11-28T08:16:16.950Z,4.45
2022-11-28T08:18:44.090Z,2.97
2022-11-28T08:21:20.009Z,4.75
2022-11-28T08:23:46.901Z,3.40
2022-11-28T08:26:15.897Z,4.55
2022-11-28T08:28:43.746Z,2.92
2022-11-28T08:31:15.457Z,4.53
2022-11-28T08:33:42.523Z,3.45
2022-11-28T08:36:11.858Z,4.22
2022-11-28T08:38:38.695Z,3.85
2022-11-28T08:41:07.419Z,4.07
2022-11-28T08:43:36.750Z,4.45
2022-11-28T08:46:04.965Z,5.53
2022-11-28T08:48:31.678Z,3.97
2022-11-28T08:50:58.215Z,3.58
2022-11-28T08:53:24.764Z,3.95
2022-11-28T08:55:51.371Z,3.55
2022-11-28T08:58:18.315Z,4.30
2022-11-28T09:00:45.280Z,3.80
2022-11-28T09:03:15.291Z,7.15
2022-11-28T09:05:45.427Z,4.10
2022-11-28T09:08:18.052Z,3.78
2022-11-28T09:10:45.838Z,4.53
2022-11-28T09:13:14.371Z,4.55
2022-11-28T09:15:42.829Z,3.05
2022-11-28T09:18:11.369Z,6.45
2022-11-28T09:20:37.889Z,3.13
2022-11-28T09:23:04.909Z,5.68
2022-11-28T09:25:31.553Z,2.53
2022-11-28T09:28:01.260Z,1.85
2022-11-28T09:30:28.202Z,3.05
2022-11-28T09:32:54.776Z,3.28
2022-11-28T09:35:21.388Z,2.78
2022-11-28T09:37:47.910Z,2.78
2022-11-28T09:40:22.588Z,2.45
2022-11-28T09:42:49.863Z,2.50
2022-11-28T09:45:22.531Z,4.43
2022-11-28T09:47:56.731Z,2.90
2022-11-28T09:50:30.555Z,3.60
2022-11-28T09:53:29.920Z,4.63
2022-11-28T09:56:00.762Z,2.85
2022-11-28T09:58:55.403Z,2.80
2022-11-28T10:01:24.933Z,3.08
2022-11-28T10:04:09.739Z,2.83
2022-11-28T10:06:53.027Z,3.70
2022-11-28T10:09:38.230Z,2.42
2022-11-28T10:12:42.102Z,2.63
2022-11-28T10:15:23.930Z,3.83
2022-11-28T10:18:14.811Z,2.85
2022-11-28T10:20:47.856Z,2.47
2022-11-28T10:23:54.447Z,3.80
2022-11-28T10:26:31.396Z,3.20
2022-11-28T10:29:02.808Z,4.22
2022-11-28T10:31:38.539Z,2.72
2022-11-28T10:34:37.161Z,3.50
2022-11-28T10:37:11.274Z,4.60
2022-11-28T10:39:42.290Z,3.10
2022-11-28T10:42:28.822Z,3.70
2022-11-28T10:45:19.264Z,3.85
2022-11-28T10:47:55.065Z,3.72
2022-11-28T10:53:14.348Z,5.55
2022-11-28T10:55:59.195Z,4.10
2022-11-28T10:58:55.881Z,3.55
2022-11-28T11:01:23.033Z,2.00
2022-11-28T11:03:50.118Z,2.63
2022-11-28T11:06:17.124Z,4.90
2022-11-28T11:08:46.054Z,2.70
2022-11-28T11:11:52.390Z,3.28
2022-11-28T11:14:37.272Z,2.80
2022-11-28T11:17:04.026Z,3.15
2022-11-28T11:19:36.780Z,3.38
2022-11-28T11:22:05.208Z,2.30
2022-11-28T11:24:32.282Z,3.13
2022-11-28T11:27:15.219Z,4.25
2022-11-28T11:29:44.040Z,2.92
2022-11-28T11:32:29.824Z,3.28
2022-11-28T11:34:58.562Z,3.38
2022-11-28T11:37:31.678Z,3.40
2022-11-28T11:39:59.719Z,4.18
2022-11-28T11:42:31.464Z,3.38
2022-11-28T11:45:24.200Z,4.70
2022-11-28T11:47:50.759Z,3.17
2022-11-28T11:50:21.364Z,4.32
2022-11-28T11:53:11.735Z,3.75
2022-11-28T11:55:48.847Z,5.22
2022-11-28T11:58:21.996Z,5.40
2022-11-28T12:00:49.067Z,7.75
2022-11-28T12:03:27.411Z,4.63
2022-11-28T12:06:16.625Z,4.95
2022-11-28T12:09:12.310Z,3.72
2022-11-28T12:11:50.804Z,4.20
2022-11-28T12:14:28.904Z,3.58
2022-11-28T12:17:25.625Z,4.25
2022-11-28T12:19:53.174Z,4.00
2022-11-28T12:22:31.909Z,5.20
2022-11-28T12:25:23.073Z,7.03
2022-11-28T12:28:15.429Z,4.88
2022-11-28T12:31:00.348Z,4.07
2022-11-28T12:33:43.494Z,4.95
2022-11-28T12:36:37.006Z,6.70
2022-11-28T12:39:24.307Z,7.72
2022-11-28T12:42:18.471Z,5.75
2022-11-28T12:45:15.924Z,4.97
2022-11-28T12:48:01.715Z,5.55
2022-11-28T12:50:39.668Z,5.40
2022-11-28T12:53:24.537Z,6.40
2022-11-28T12:56:25.853Z,4.47
2022-11-28T12:59:25.845Z,6.97
2022-11-28T13:02:22.440Z,5.50
2022-11-28T13:08:13.592Z,6.00
2022-11-28T13:10:50.392Z,4.68
2022-11-28T13:13:44.979Z,4.88
2022-11-28T13:17:05.698Z,5.28
2022-11-28T13:19:55.061Z,7.28
2022-11-28T13:22:25.137Z,6.55
2022-11-28T13:25:40.306Z,4.97
2022-11-28T13:28:30.953Z,4.85
2022-11-28T13:31:07.628Z,5.95
2022-11-28T13:33:49.852Z,5.28
2022-11-28T13:39:41.006Z,7.07
2022-11-28T13:42:36.535Z,6.38
2022-11-28T13:45:07.236Z,5.97
2022-11-28T13:47:36.908Z,4.80
2022-11-28T13:50:24.976Z,4.68
2022-11-28T13:53:21.853Z,7.10
2022-11-28T13:56:15.885Z,5.90
2022-11-28T13:58:56.974Z,5.80
2022-11-28T14:01:26.917Z,6.18
2022-11-28T14:04:13.719Z,6.70
2022-11-28T14:06:59.185Z,5.05
2022-11-28T14:09:44.810Z,6.25
2022-11-28T14:12:28.854Z,5.10
2022-11-28T14:15:06.456Z,7.40
2022-11-28T14:18:19.155Z,6.10
2022-11-28T14:21:07.428Z,4.25
2022-11-28T14:23:40.385Z,5.38
2022-11-28T14:26:45.425Z,6.85
2022-11-28T14:29:22.911Z,7.07
2022-11-28T14:32:07.009Z,5.43
2022-11-28T14:34:44.822Z,6.35
2022-11-28T14:37:47.650Z,5.95
2022-11-28T14:41:03.066Z,9.18
2022-11-28T14:43:35.660Z,7.28
2022-11-28T14:46:21.538Z,4.40
2022-11-28T14:49:00.572Z,5.75
2022-11-28T14:51:45.631Z,5.82
2022-11-28T14:54:25.164Z,5.53
2022-11-28T14:56:58.228Z,6.22
2022-11-28T14:59:36.965Z,6.68
2022-11-28T15:02:12.696Z,5.88
2022-11-28T15:08:10.139Z,7.13
2022-11-28T15:10:54.800Z,4.78
2022-11-28T15:13:42.957Z,5.07
2022-11-28T15:16:15.186Z,5.18
2022-11-28T15:18:49.070Z,5.25
2022-11-28T15:21:18.081Z,5.07
2022-11-28T15:23:46.629Z,6.38
2022-11-28T15:26:20.322Z,5.72
2022-11-28T15:28:46.928Z,4.97
2022-11-28T15:31:22.669Z,5.78
2022-11-28T15:36:37.337Z,5.95
2022-11-28T15:39:04.060Z,5.53
2022-11-28T15:41:30.665Z,4.45
2022-11-28T15:43:57.594Z,6.63
2022-11-28T15:46:32.837Z,5.43
2022-11-28T15:49:01.475Z,5.03
2022-11-28T15:51:33.776Z,5.55
2022-11-28T15:54:31.484Z,5.20
2022-11-28T15:56:59.121Z,5.70
2022-11-28T15:59:26.218Z,5.80
2022-11-28T16:02:00.088Z,5.07
2022-11-28T16:04:29.642Z,5.00
2022-11-28T16:06:59.554Z,4.75
2022-11-28T16:09:31.031Z,4.32
2022-11-28T16:11:58.053Z,3.92
2022-11-28T16:14:29.294Z,4.13
2022-11-28T16:17:00.784Z,6.20
2022-11-28T16:19:36.619Z,7.00
2022-11-28T16:24:43.235Z,4.28
2022-11-28T16:27:25.118Z,5.80
2022-11-28T16:29:51.800Z,4.93
2022-11-28T16:32:36.807Z,5.35
2022-11-28T16:35:04.945Z,7.47
2022-11-28T16:37:32.993Z,5.25
2022-11-28T16:40:14.978Z,4.18
2022-11-28T16:42:41.736Z,4.80
2022-11-28T16:45:17.949Z,4.60
2022-11-28T16:47:45.721Z,4.22
2022-11-28T16:50:22.079Z,8.90
2022-11-28T16:53:00.969Z,4.97
2022-11-28T16:55:27.483Z,5.75
2022-11-28T16:58:03.768Z,6.00
2022-11-28T17:00:30.296Z,4.88
2022-11-28T17:02:56.813Z,5.15
2022-11-28T17:05:23.387Z,4.47
2022-11-28T17:07:49.953Z,4.38
2022-11-28T17:10:16.826Z,5.47
2022-11-28T17:12:43.389Z,4.32
2022-11-28T17:15:22.784Z,4.43
2022-11-28T17:17:49.920Z,4.45
2022-11-28T17:20:17.781Z,5.82
2022-11-28T17:22:48.214Z,8.07
2022-11-28T17:25:17.798Z,5.28
2022-11-28T17:27:45.282Z,5.63
2022-11-28T17:30:18.104Z,5.28
2022-11-28T17:32:47.128Z,6.30
2022-11-28T17:35:20.118Z,6.10
2022-11-28T17:37:46.668Z,6.88
2022-11-28T17:40:32.011Z,7.13
2022-11-28T17:42:59.904Z,7.67
2022-11-28T17:45:27.121Z,6.40
2022-11-28T17:47:54.646Z,5.30
2022-11-28T17:50:21.728Z,5.40
2022-11-28T17:52:48.777Z,7.38
2022-11-28T17:55:18.235Z,5.22
2022-11-28T17:57:44.788Z,5.78
2022-11-28T18:00:13.088Z,5.15
2022-11-28T18:02:39.742Z,9.20
2022-11-28T18:05:06.502Z,6.00
2022-11-28T18:07:33.177Z,5.80
2022-11-28T18:09:59.732Z,4.95
2022-11-28T18:12:26.396Z,5.47
2022-11-28T18:14:53.131Z,5.68
2022-11-28T18:17:20.168Z,5.03
2022-11-28T18:19:46.872Z,6.32
2022-11-28T18:22:13.552Z,12.40
2022-11-28T18:24:40.090Z,6.07
2022-11-28T18:27:06.656Z,5.57
2022-11-28T18:29:34.313Z,7.95
2022-11-28T18:32:01.505Z,6.65
2022-11-28T18:34:28.689Z,5.45
2022-11-28T18:37:00.673Z,5.45
2022-11-28T18:39:27.715Z,6.20
2022-11-28T18:41:54.310Z,5.97
2022-11-28T18:44:20.876Z,4.63
2022-11-28T18:46:47.410Z,5.47
2022-11-28T18:49:15.568Z,5.10
2022-11-28T18:51:42.133Z,8.02
2022-11-28T18:54:09.377Z,5.40
2022-11-28T18:56:35.976Z,5.10
2022-11-28T18:59:02.772Z,5.75
2022-11-28T19:01:32.462Z,7.78
2022-11-28T19:04:05.592Z,7.15
2022-11-28T19:06:34.482Z,6.63
2022-11-28T19:09:03.192Z,8.00
2022-11-28T19:11:30.216Z,5.68
2022-11-28T19:13:57.907Z,6.30
2022-11-28T19:16:27.221Z,6.15
2022-11-28T19:18:54.809Z,6.30
2022-11-28T19:21:26.519Z,6.80
2022-11-28T19:23:55.073Z,6.45
2022-11-28T19:26:24.172Z,7.20
2022-11-28T19:28:51.344Z,5.28
2022-11-28T19:31:21.158Z,8.13
2022-11-28T19:34:00.851Z,5.45
2022-11-28T19:36:30.425Z,5.97
2022-11-28T19:38:58.190Z,6.22
2022-11-28T19:41:25.666Z,5.72
2022-11-28T19:43:52.234Z,6.80
2022-11-28T19:46:19.019Z,7.70
2022-11-28T19:48:46.349Z,6.75
2022-11-28T19:51:14.116Z,6.22
2022-11-28T19:53:42.653Z,6.22
2022-11-28T19:56:13.001Z,8.77
2022-11-28T19:58:39.998Z,7.40
2022-11-28T20:01:12.490Z,6.82
2022-11-28T20:03:41.124Z,6.28
2022-11-28T20:06:10.083Z,4.88
2022-11-28T20:08:37.013Z,6.53
2022-11-28T20:11:10.019Z,6.85
2022-11-28T20:13:37.136Z,8.40
2022-11-28T20:16:08.812Z,7.20
2022-11-28T20:18:39.893Z,6.70
2022-11-28T20:21:17.796Z,6.18
2022-11-28T20:23:47.560Z,8.77
2022-11-28T20:26:15.569Z,6.20
2022-11-28T20:28:43.085Z,8.65
2022-11-28T20:31:24.954Z,8.57
2022-11-28T20:33:53.381Z,7.72
2022-11-28T20:36:22.748Z,8.52
2022-11-28T20:38:50.082Z,7.57
2022-11-28T20:41:20.661Z,7.05
2022-11-28T20:43:47.630Z,4.97
2022-11-28T20:46:22.766Z,7.05
2022-11-28T20:48:49.693Z,6.55
2022-11-28T20:51:22.766Z,8.35
2022-11-28T20:53:49.357Z,6.35
2022-11-28T20:56:21.241Z,7.93
2022-11-28T20:58:48.509Z,8.50
2022-11-28T21:01:17.384Z,7.22
2022-11-28T21:03:45.001Z,7.95
2022-11-28T21:06:11.563Z,7.82
2022-11-28T21:08:38.925Z,7.20
2022-11-28T21:11:10.996Z,6.68
2022-11-28T21:13:37.977Z,6.93
2022-11-28T21:16:07.530Z,7.13
2022-11-28T21:18:37.308Z,7.20
2022-11-28T21:21:19.095Z,6.50
2022-11-28T21:23:46.231Z,6.72
2022-11-28T21:26:16.513Z,7.57
2022-11-28T21:28:45.573Z,8.90
2022-11-28T21:31:18.596Z,10.07
2022-11-28T21:33:49.172Z,6.63
2022-11-28T21:36:15.729Z,7.30
2022-11-28T21:38:42.844Z,6.50
2022-11-28T21:41:09.460Z,7.72
2022-11-28T21:43:36.564Z,6.60
2022-11-28T21:46:07.350Z,6.95
2022-11-28T21:48:35.920Z,7.82
2022-11-28T21:51:03.662Z,7.13
2022-11-28T21:53:30.933Z,6.35
2022-11-28T21:56:00.755Z,6.45
2022-11-28T21:58:28.429Z,7.13
2022-11-28T22:00:58.791Z,6.15
2022-11-28T22:03:26.179Z,6.47
2022-11-28T22:05:59.311Z,6.53
2022-11-28T22:08:26.343Z,5.25
2022-11-28T22:10:52.889Z,5.82
2022-11-28T22:13:19.934Z,5.72
2022-11-28T22:15:46.539Z,5.68
2022-11-28T22:18:13.107Z,6.50
2022-11-28T22:20:43.617Z,6.97
2022-11-28T22:23:11.636Z,5.80
2022-11-28T22:25:49.330Z,7.97
2022-11-28T22:28:15.906Z,5.32
2022-11-28T22:30:42.436Z,6.28
2022-11-28T22:33:08.954Z,7.60
2022-11-28T22:35:35.875Z,6.20
2022-11-28T22:38:02.453Z,5.47
2022-11-28T22:40:28.984Z,6.00
2022-11-28T22:42:56.122Z,6.28
2022-11-28T22:45:22.997Z,5.50
2022-11-28T22:47:50.059Z,6.75
2022-11-28T22:50:16.617Z,10.75
2022-11-28T22:52:44.175Z,6.60
2022-11-28T22:55:11.167Z,5.45
2022-11-28T22:57:37.690Z,6.28
2022-11-28T23:00:06.947Z,5.38
2022-11-28T23:02:33.636Z,5.60
2022-11-28T23:05:00.242Z,7.97
2022-11-28T23:07:27.385Z,6.88
2022-11-28T23:09:53.984Z,5.72
2022-11-28T23:12:20.550Z,5.82
2022-11-28T23:14:48.382Z,6.25
2022-11-28T23:17:14.924Z,6.65
2022-11-28T23:19:41.784Z,7.18
2022-11-28T23:22:08.944Z,6.65
2022-11-28T23:24:36.365Z,6.78
2022-11-28T23:27:02.933Z,8.13
2022-11-28T23:29:29.503Z,8.23
2022-11-28T23:31:56.072Z,6.97
2022-11-28T23:34:23.150Z,6.10
2022-11-28T23:36:50.143Z,6.68
2022-11-28T23:39:21.803Z,7.72
2022-11-28T23:41:49.233Z,7.18
2022-11-28T23:44:17.383Z,8.90
2022-11-28T23:46:45.042Z,7.45
2022-11-28T23:49:12.343Z,9.65
2022-11-28T23:51:40.485Z,7.65
2022-11-28T23:54:08.684Z,8.85
2022-11-28T23:56:37.531Z,8.15
2022-11-28T23:59:06.131Z,9.45
